Time;durP1;ratioP1;P1;durP2;ratioP2;P2;SDS_P1;SDS_P2;PMS_P1;PMS_P2;Temp;Humidity;BMP_temperature;BMP_pressure;BME280_temperature;BME280_humidity;BME280_pressure;Samples;Min_cycle;Max_cycle;Signal;HPM_P1;HPM_P2
2022/01/18 00:01:07;;;;;;;22.70;6.80;;;;;;;1.99;94.55;103652.44;5024030;28;20033;-76
2022/01/18 00:03:32;;;;;;;22.23;7.38;;;;;;;2.05;94.70;103652.47;5030063;28;20029;-76
2022/01/18 00:05:57;;;;;;;22.67;7.57;;;;;;;2.13;95.29;103650.78;5030136;28;20075;-76
2022/01/18 00:08:23;;;;;;;21.45;7.13;;;;;;;2.19;95.46;103652.59;5034400;28;20098;-76
2022/01/18 00:10:49;;;;;;;20.10;6.97;;;;;;;2.23;95.43;103659.72;5018677;28;20052;-76
2022/01/18 00:13:36;;;;;;;28.17;7.82;;;;;;;2.29;96.04;103656.22;5037276;28;20029;-76
2022/01/18 00:18:35;;;;;;;25.75;8.40;;;;;;;2.43;96.66;103655.44;5031721;28;20116;-76
2022/01/18 00:23:34;;;;;;;18.52;6.20;;;;;;;2.58;96.44;103661.72;5039396;28;20000;-76
2022/01/18 00:26:00;;;;;;;19.02;6.32;;;;;;;2.60;96.26;103652.84;5047378;28;20033;-76
2022/01/18 00:28:27;;;;;;;22.52;6.90;;;;;;;2.66;96.88;103654.66;5042756;28;20022;-76
2022/01/18 00:31:25;;;;;;;20.65;6.68;;;;;;;2.68;96.58;103652.91;5013914;28;20024;-76
2022/01/18 00:36:10;;;;;;;24.38;8.18;;;;;;;2.73;96.55;103666.19;5012840;28;20147;-76
2022/01/18 00:38:47;;;;;;;31.48;8.95;;;;;;;2.80;96.88;103671.53;5028443;28;20116;-76
2022/01/18 00:41:13;;;;;;;20.90;7.13;;;;;;;2.86;97.25;103664.50;5014714;28;20029;-76
2022/01/18 00:43:40;;;;;;;26.65;8.50;;;;;;;2.92;97.54;103675.16;5018341;28;20492;-76
2022/01/18 00:46:05;;;;;;;24.60;7.70;;;;;;;2.94;97.28;103679.59;5030704;28;20165;-76
2022/01/18 00:48:33;;;;;;;24.95;7.30;;;;;;;2.98;97.42;103672.50;5030662;28;20100;-76
2022/01/18 00:50:59;;;;;;;29.75;9.23;;;;;;;3.00;97.46;103675.16;5028393;28;20450;-76
2022/01/18 00:53:26;;;;;;;24.50;8.38;;;;;;;3.04;97.37;103679.63;5030533;28;20075;-76
2022/01/18 00:56:38;;;;;;;24.90;9.25;;;;;;;3.06;98.05;103688.47;5038768;28;20021;-76
2022/01/18 00:58:42;;;;;;;30.45;8.63;;;;;;;3.11;97.99;103690.28;5031921;28;20141;-76
2022/01/18 01:01:08;;;;;;;29.13;10.40;;;;;;;3.15;98.01;103694.72;5028168;28;20040;-76
2022/01/18 01:03:34;;;;;;;26.58;9.60;;;;;;;3.19;97.92;103684.97;5030077;28;20037;-76
2022/01/18 01:06:00;;;;;;;33.97;10.13;;;;;;;3.22;98.12;103686.75;5046072;28;20508;-76
2022/01/18 01:08:26;;;;;;;27.15;7.95;;;;;;;3.22;97.86;103682.34;5030356;28;20132;-76
2022/01/18 01:10:51;;;;;;;30.00;8.52;;;;;;;3.23;97.80;103681.44;5026938;28;20042;-76
2022/01/18 01:13:17;;;;;;;25.25;8.38;;;;;;;3.27;98.11;103682.38;5028648;28;20061;-76
2022/01/18 01:45:31;;;;;;;31.83;9.35;;;;;;;3.58;98.61;103683.31;5028670;28;20034;-76
2022/01/18 01:47:59;;;;;;;25.85;10.38;;;;;;;3.57;98.67;103675.34;5026857;28;20025;-77
2022/01/18 01:50:28;;;;;;;32.65;9.52;;;;;;;3.58;98.75;103671.81;5026119;28;20025;-76
2022/01/18 01:52:55;;;;;;;32.03;9.93;;;;;;;3.60;98.60;103678.00;5028487;28;20311;-76
2022/01/18 01:55:23;;;;;;;34.42;8.90;;;;;;;3.62;98.75;103668.25;5027610;28;20618;-76
2022/01/18 01:57:49;;;;;;;31.42;11.38;;;;;;;3.65;99.14;103677.13;5029220;28;20064;-76
2022/01/18 02:00:20;;;;;;;30.15;10.10;;;;;;;3.70;99.21;103679.78;5030913;28;20388;-75
2022/01/18 02:02:46;;;;;;;35.83;10.60;;;;;;;3.71;99.11;103681.56;5027954;28;20100;-73
2022/01/18 02:05:12;;;;;;;37.33;11.00;;;;;;;3.74;99.29;103672.72;5028431;28;20334;-73
2022/01/18 02:07:37;;;;;;;30.33;10.52;;;;;;;3.74;99.21;103670.94;5038776;28;20131;-73
2022/01/18 02:10:07;;;;;;;27.15;9.40;;;;;;;3.77;99.08;103676.25;5032148;28;20087;-73
2022/01/18 02:12:33;;;;;;;27.60;9.88;;;;;;;3.78;98.99;103675.38;5025696;28;20028;-73
2022/01/18 02:15:00;;;;;;;28.00;10.80;;;;;;;3.81;99.23;103683.34;5035757;28;20382;-73
2022/01/18 02:22:55;;;;;;;28.48;10.25;;;;;;;3.88;99.24;103680.69;5030124;28;20048;-73
2022/01/18 02:25:21;;;;;;;25.60;9.65;;;;;;;3.88;99.46;103675.34;5034338;28;20461;-73
2022/01/18 02:27:46;;;;;;;27.55;10.18;;;;;;;3.88;99.15;103675.34;5049260;28;20029;-74
2022/01/18 02:30:12;;;;;;;26.58;10.88;;;;;;;3.91;99.15;103678.03;5030746;28;20021;-73
2022/01/18 02:32:37;;;;;;;29.10;10.68;;;;;;;3.92;99.25;103677.13;5031505;28;20033;-74
2022/01/18 02:35:03;;;;;;;30.42;11.65;;;;;;;3.93;99.42;103674.47;5017207;28;20071;-74
2022/01/18 02:37:28;;;;;;;34.22;10.23;;;;;;;3.94;99.21;103678.00;5024848;28;20105;-73
2022/01/18 02:39:54;;;;;;;21.67;9.10;;;;;;;3.93;99.21;103669.16;5030599;28;20029;-73
2022/01/18 02:42:24;;;;;;;26.60;11.93;;;;;;;3.94;99.41;103667.38;5024821;28;20029;-73
2022/01/18 02:44:50;;;;;;;26.98;10.40;;;;;;;3.94;99.35;103665.63;5027730;28;20461;-73
2022/01/18 02:47:19;;;;;;;25.95;10.07;;;;;;;3.93;99.44;103674.47;5027093;28;20037;-73
2022/01/18 02:49:44;;;;;;;28.10;10.90;;;;;;;3.94;99.35;103668.28;5028532;28;20031;-73
2022/01/18 02:52:09;;;;;;;26.95;10.25;;;;;;;3.96;99.29;103663.84;5026048;28;20025;-73
2022/01/18 02:54:35;;;;;;;26.30;10.55;;;;;;;3.96;99.44;103665.63;5028919;28;20059;-74
2022/01/18 02:57:03;;;;;;;26.63;10.15;;;;;;;3.96;99.43;103669.16;5028735;28;20038;-74
2022/01/18 02:59:37;;;;;;;39.03;11.63;;;;;;;3.96;99.53;103668.28;5031516;28;20152;-73
2022/01/18 03:05:05;;;;;;;32.70;12.50;;;;;;;3.97;99.53;103665.63;5018595;28;20499;-74
2022/01/18 03:07:30;;;;;;;31.92;11.63;;;;;;;3.97;99.42;103670.06;5021506;28;20029;-73
2022/01/18 03:09:55;;;;;;;31.52;13.02;;;;;;;3.96;99.08;103674.47;5026429;28;20056;-73
2022/01/18 03:12:21;;;;;;;30.67;12.68;;;;;;;3.97;99.36;103670.06;5027863;28;20482;-74
2022/01/18 03:14:46;;;;;;;31.77;12.63;;;;;;;3.96;99.45;103665.63;5028373;28;20375;-74
2022/01/18 03:17:12;;;;;;;30.67;12.85;;;;;;;3.97;99.39;103673.59;5026419;28;20132;-74
2022/01/18 03:19:37;;;;;;;32.22;10.77;;;;;;;3.96;99.43;103674.47;5027462;28;20109;-74
2022/01/18 03:22:03;;;;;;;28.35;11.25;;;;;;;3.98;99.21;103677.13;5026108;28;20452;-74
2022/01/18 03:29:38;;;;;;;27.23;12.18;;;;;;;3.97;99.04;103681.59;5027026;28;20052;-74
2022/01/18 03:32:04;;;;;;;28.95;11.90;;;;;;;3.98;99.09;103682.47;5029720;28;20029;-74
2022/01/18 03:34:29;;;;;;;30.15;13.02;;;;;;;3.96;99.34;103684.25;5015702;28;20026;-74
2022/01/18 03:36:55;;;;;;;25.48;12.27;;;;;;;3.96;99.05;103685.13;5018584;28;20080;-73
2022/01/18 03:39:21;;;;;;;28.08;11.48;;;;;;;3.97;99.24;103686.91;5031287;28;20025;-73
2022/01/18 03:41:53;;;;;;;31.63;12.32;;;;;;;3.96;99.07;103684.25;5026311;28;20496;-73
2022/01/18 03:44:19;;;;;;;27.60;12.93;;;;;;;3.96;99.06;103673.59;5027718;28;20095;-73
2022/01/18 03:46:46;;;;;;;26.20;12.73;;;;;;;3.96;99.50;103678.91;5028642;28;20034;-73
2022/01/18 03:49:11;;;;;;;31.67;12.35;;;;;;;3.94;99.08;103670.03;5027739;28;20025;-74
2022/01/18 03:51:36;;;;;;;29.10;12.85;;;;;;;3.94;99.02;103680.69;5021765;28;20038;-73
2022/01/18 03:54:01;;;;;;;27.88;12.30;;;;;;;3.94;99.35;103678.91;5048491;28;20030;-73
2022/01/18 03:56:27;;;;;;;32.78;12.90;;;;;;;3.95;99.17;103685.13;5027652;28;20045;-73
2022/01/18 03:58:52;;;;;;;27.98;11.82;;;;;;;3.95;99.19;103690.44;5027559;28;20474;-73
2022/01/18 04:01:18;;;;;;;31.10;13.35;;;;;;;3.98;99.30;103693.09;5030035;28;20100;-73
2022/01/18 04:03:43;;;;;;;33.75;12.63;;;;;;;3.98;99.32;103695.75;5028271;28;20029;-74
2022/01/18 04:06:08;;;;;;;27.80;12.52;;;;;;;3.98;99.50;103696.66;5025057;28;20025;-74
2022/01/18 04:08:33;;;;;;;27.85;12.98;;;;;;;3.99;99.35;103695.75;5039054;28;20057;-74
2022/01/18 04:10:59;;;;;;;29.02;12.32;;;;;;;4.01;99.24;103703.75;5015396;28;20060;-74
2022/01/18 04:13:24;;;;;;;30.13;12.98;;;;;;;3.98;99.11;103703.75;5027195;28;20048;-73
2022/01/18 04:15:49;;;;;;;28.90;13.18;;;;;;;3.98;99.39;103703.75;5019803;28;20687;-73
2022/01/18 04:29:00;;;;;;;26.95;12.55;;;;;;;3.94;99.14;103708.19;5017247;28;20041;-73
2022/01/18 04:31:26;;;;;;;26.63;12.02;;;;;;;3.95;99.28;103715.31;5039394;28;20044;-72
2022/01/18 04:33:52;;;;;;;27.27;12.52;;;;;;;3.97;99.24;103707.31;5025483;28;20057;-72
2022/01/18 04:36:18;;;;;;;29.00;13.73;;;;;;;3.96;99.51;103700.22;5011470;28;20116;-73
2022/01/18 04:38:43;;;;;;;33.90;14.13;;;;;;;3.99;99.40;103700.22;5024862;28;20055;-73
2022/01/18 04:41:13;;;;;;;30.17;13.80;;;;;;;3.98;99.13;103703.75;5025612;28;20033;-73
2022/01/18 04:48:55;;;;;;;30.88;13.15;;;;;;;3.96;99.35;103711.72;5031829;28;20068;-73
2022/01/18 04:51:20;;;;;;;34.35;14.50;;;;;;;3.95;99.47;103711.72;5028889;28;20029;-73
2022/01/18 04:53:53;;;;;;;37.20;14.55;;;;;;;3.95;99.32;103709.97;5031052;28;20033;-73
2022/01/18 04:59:10;;;;;;;29.58;13.40;;;;;;;3.94;99.29;103709.94;5028906;28;20052;-73
2022/01/18 05:01:37;;;;;;;32.15;13.65;;;;;;;3.92;99.08;103715.28;5033340;28;20136;-73
2022/01/18 05:04:03;;;;;;;35.90;13.05;;;;;;;3.94;99.38;103718.84;5029834;28;20025;-74
2022/01/18 05:06:28;;;;;;;30.15;13.70;;;;;;;3.94;99.47;103716.19;5033025;28;20032;-73
2022/01/18 05:08:55;;;;;;;31.08;14.70;;;;;;;3.95;99.33;103714.38;5030858;28;20021;-73
2022/01/18 05:11:23;;;;;;;33.97;13.60;;;;;;;3.93;99.05;103716.19;5029555;28;20088;-73
2022/01/18 05:14:04;;;;;;;29.60;12.70;;;;;;;3.93;99.31;103714.38;5029921;28;20063;-73
2022/01/18 05:19:15;;;;;;;31.58;13.02;;;;;;;3.95;99.42;103730.34;5030476;28;20034;-73
2022/01/18 05:24:26;;;;;;;30.23;11.95;;;;;;;3.95;99.23;103725.03;5039450;28;20388;-73
2022/01/18 05:26:53;;;;;;;36.17;13.60;;;;;;;3.96;99.26;103726.81;5030372;28;20075;-73
2022/01/18 05:29:18;;;;;;;35.45;13.60;;;;;;;3.94;99.13;103718.84;5030439;28;20029;-73
2022/01/18 05:31:44;;;;;;;34.38;13.93;;;;;;;3.95;99.16;103720.63;5030496;28;20616;-73
2022/01/18 05:34:11;;;;;;;31.25;13.43;;;;;;;3.94;99.18;103731.22;5024122;28;20539;-73
2022/01/18 05:36:36;;;;;;;43.55;14.45;;;;;;;3.94;99.03;103731.22;5008447;28;20098;-73
2022/01/18 05:39:02;;;;;;;27.13;11.85;;;;;;;3.92;99.26;103725.03;5028735;28;20466;-73
2022/01/18 05:41:27;;;;;;;31.35;13.45;;;;;;;3.94;99.20;103728.56;5023435;28;20029;-73
2022/01/18 05:43:52;;;;;;;37.28;13.45;;;;;;;3.95;99.57;103722.38;5029079;28;20556;-73
2022/01/18 05:46:18;;;;;;;33.40;13.43;;;;;;;3.95;99.35;103727.69;5027227;28;20032;-73
2022/01/18 05:48:43;;;;;;;32.45;13.95;;;;;;;3.95;99.46;103717.06;5030091;28;20029;-73
2022/01/18 05:51:08;;;;;;;30.88;12.70;;;;;;;3.94;99.22;103715.25;5033466;28;20055;-73
2022/01/18 05:53:36;;;;;;;33.15;13.45;;;;;;;3.95;99.29;103722.38;5047845;28;20487;-73
2022/01/18 05:56:03;;;;;;;41.22;15.15;;;;;;;3.93;99.28;103721.50;5044808;28;20120;-73
2022/01/18 05:58:29;;;;;;;37.22;14.50;;;;;;;3.93;99.25;103716.19;5028938;28;20028;-73
2022/01/18 06:00:55;;;;;;;32.08;12.52;;;;;;;3.93;99.22;103716.19;5030481;28;20068;-73
2022/01/18 06:03:33;;;;;;;34.20;13.30;;;;;;;3.94;99.44;103724.16;5027781;28;20044;-74
2022/01/18 06:08:44;;;;;;;42.42;13.60;;;;;;;3.96;99.44;103717.06;5028434;28;20516;-73
2022/01/18 06:11:09;;;;;;;30.67;13.48;;;;;;;3.95;99.45;103719.72;5027160;28;20033;-73
2022/01/18 06:13:35;;;;;;;30.20;13.43;;;;;;;3.96;99.59;103716.19;5028232;28;20079;-73
2022/01/18 06:16:01;;;;;;;34.65;13.52;;;;;;;3.96;99.42;103716.19;5027951;28;20083;-73
2022/01/18 06:18:26;;;;;;;34.10;14.55;;;;;;;3.97;99.52;103717.97;5027378;28;20528;-73
2022/01/18 06:20:51;;;;;;;39.70;12.50;;;;;;;3.98;99.47;103722.38;5027092;28;20429;-73
2022/01/18 06:23:17;;;;;;;29.45;13.10;;;;;;;3.99;99.27;103716.19;5028220;28;20025;-73
2022/01/18 06:25:43;;;;;;;37.25;14.05;;;;;;;3.98;99.59;103720.63;5029249;28;20371;-73
2022/01/18 06:28:08;;;;;;;28.45;13.25;;;;;;;3.98;99.46;103723.28;5028968;28;20029;-73
2022/01/18 06:30:34;;;;;;;32.80;13.55;;;;;;;3.98;99.38;103719.72;5040564;28;20120;-73
2022/01/18 06:32:59;;;;;;;38.63;15.85;;;;;;;3.96;99.28;103719.72;5030525;28;20119;-73
2022/01/18 06:35:24;;;;;;;33.78;13.90;;;;;;;3.97;99.52;103716.19;5026320;28;20033;-72
2022/01/18 06:37:50;;;;;;;41.60;13.57;;;;;;;3.98;99.78;103717.97;5014258;28;20147;-73
2022/01/18 06:40:18;;;;;;;38.13;15.55;;;;;;;3.99;99.68;103721.50;5026529;28;20466;-73
2022/01/18 06:42:43;;;;;;;32.17;14.68;;;;;;;3.99;99.75;103710.84;5027156;28;20059;-72
2022/01/18 06:45:09;;;;;;;35.17;15.52;;;;;;;4.01;99.74;103712.63;5027119;28;20033;-74
2022/01/18 06:47:35;;;;;;;36.38;15.55;;;;;;;4.01;99.75;103722.38;5027757;28;20087;-73
2022/01/18 06:50:01;;;;;;;38.58;15.85;;;;;;;4.03;99.77;103723.28;5045141;28;20021;-73
2022/01/18 06:52:26;;;;;;;41.30;15.35;;;;;;;4.04;99.56;103719.72;5035846;28;20144;-73
2022/01/18 06:54:51;;;;;;;32.22;14.57;;;;;;;4.04;99.78;103725.03;5038531;28;20026;-73
2022/01/18 06:57:17;;;;;;;36.78;15.88;;;;;;;4.06;99.44;103727.72;5026529;28;20033;-72
2022/01/18 06:59:42;;;;;;;39.03;15.85;;;;;;;4.05;99.77;103732.13;5038216;28;20109;-74
2022/01/18 07:02:07;;;;;;;37.78;14.98;;;;;;;4.05;99.67;103731.25;5035788;28;20052;-73
2022/01/18 07:04:33;;;;;;;38.88;14.68;;;;;;;4.06;99.56;103728.59;5025516;28;20025;-73
2022/01/18 07:06:58;;;;;;;40.80;14.63;;;;;;;4.08;99.64;103731.25;5026202;28;20091;-73
2022/01/18 07:09:24;;;;;;;32.38;15.30;;;;;;;4.07;99.58;103735.72;5026835;28;20037;-73
2022/01/18 07:11:51;;;;;;;34.80;15.68;;;;;;;4.07;99.84;103734.81;5027645;28;20059;-73
2022/01/18 07:14:16;;;;;;;34.67;15.20;;;;;;;4.08;99.60;103736.59;5033671;28;20037;-73
2022/01/18 07:16:41;;;;;;;29.70;13.90;;;;;;;4.10;99.77;103737.47;5026364;28;20056;-73
2022/01/18 07:19:07;;;;;;;31.48;15.50;;;;;;;4.08;99.60;103736.59;5026343;28;20021;-73
2022/01/18 07:21:32;;;;;;;33.28;14.45;;;;;;;4.08;99.51;103739.25;5025808;28;20045;-72
2022/01/18 07:24:04;;;;;;;37.45;15.82;;;;;;;4.10;99.76;103735.72;5027033;28;20060;-72
2022/01/18 07:26:30;;;;;;;35.35;15.82;;;;;;;4.10;99.57;103743.69;5025079;28;20033;-72
2022/01/18 07:28:56;;;;;;;33.03;14.77;;;;;;;4.11;99.61;103741.91;5023887;28;20029;-72
2022/01/18 07:31:21;;;;;;;38.47;15.63;;;;;;;4.10;99.31;103745.44;5033748;28;20024;-72
2022/01/18 07:33:47;;;;;;;37.50;16.90;;;;;;;4.11;99.06;103750.75;5025266;28;20039;-72
2022/01/18 07:36:12;;;;;;;39.92;16.08;;;;;;;4.11;99.60;103761.41;5009102;28;20857;-73
2022/01/18 07:38:37;;;;;;;33.58;16.25;;;;;;;4.10;99.47;103745.44;5026481;28;20098;-73
2022/01/18 07:41:02;;;;;;;32.33;13.93;;;;;;;4.10;99.43;103757.00;5048014;28;20047;-73
2022/01/18 07:43:28;;;;;;;34.30;14.65;;;;;;;4.09;99.25;103752.56;5044902;28;20087;-72
2022/01/18 07:45:53;;;;;;;32.17;15.52;;;;;;;4.08;99.55;103753.44;5026873;28;20039;-72
2022/01/18 07:48:21;;;;;;;36.50;16.75;;;;;;;4.09;99.63;103757.88;5038790;28;20082;-72
2022/01/18 07:50:47;;;;;;;39.95;16.27;;;;;;;4.10;99.61;103761.41;5046966;28;20082;-72
2022/01/18 07:53:12;;;;;;;33.60;15.68;;;;;;;4.10;99.72;103764.97;5048298;28;20029;-72
2022/01/18 07:55:38;;;;;;;32.17;15.60;;;;;;;4.13;99.93;103762.31;5039694;28;20099;-72
2022/01/18 07:58:03;;;;;;;34.30;16.00;;;;;;;4.12;99.80;103763.19;5008657;28;20467;-72
2022/01/18 08:00:29;;;;;;;36.75;16.55;;;;;;;4.14;99.78;103765.84;5016356;28;20049;-72
2022/01/18 08:02:55;;;;;;;35.50;16.77;;;;;;;4.15;99.62;103763.19;5015275;28;20367;-72
2022/01/18 08:05:21;;;;;;;43.55;16.60;;;;;;;4.15;99.74;103762.31;5015951;28;20116;-72
2022/01/18 08:07:46;;;;;;;37.35;16.73;;;;;;;4.15;99.65;103757.88;5015504;28;20033;-72
2022/01/18 08:10:13;;;;;;;31.08;16.13;;;;;;;4.16;99.62;103762.31;5016602;28;20533;-72
2022/01/18 08:12:39;;;;;;;34.88;16.23;;;;;;;4.18;99.63;103764.97;5014532;28;20061;-73
2022/01/18 08:15:14;;;;;;;35.65;16.88;;;;;;;4.18;99.85;103771.19;5017593;28;20084;-72
2022/01/18 08:17:42;;;;;;;32.47;15.02;;;;;;;4.19;99.73;103767.63;5019031;28;20078;-72
2022/01/18 08:20:10;;;;;;;38.78;16.48;;;;;;;4.19;99.48;103757.00;5017773;28;20034;-73
2022/01/18 08:22:36;;;;;;;38.83;16.50;;;;;;;4.23;99.77;103754.31;5020289;28;20022;-72
2022/01/18 08:25:01;;;;;;;38.28;18.15;;;;;;;4.24;99.92;103758.78;5021130;28;20036;-72
2022/01/18 08:27:27;;;;;;;42.00;17.63;;;;;;;4.24;100.00;103756.13;5020789;28;20632;-72
2022/01/18 08:29:52;;;;;;;41.08;19.58;;;;;;;4.26;100.00;103757.91;5021049;28;20366;-73
2022/01/18 08:32:17;;;;;;;35.25;17.55;;;;;;;4.29;100.00;103756.97;5020905;28;20108;-73
2022/01/18 08:34:43;;;;;;;39.58;17.90;;;;;;;4.30;100.00;103758.78;5018203;28;20516;-73
2022/01/18 08:37:08;;;;;;;49.28;19.15;;;;;;;4.30;100.00;103748.13;5020809;28;20048;-73
2022/01/18 08:39:34;;;;;;;45.80;19.30;;;;;;;4.33;100.00;103750.78;5019323;28;20159;-72
2022/01/18 08:41:59;;;;;;;44.38;17.33;;;;;;;4.36;100.00;103758.75;5018567;28;20517;-72
2022/01/18 08:44:24;;;;;;;49.30;19.65;;;;;;;4.37;100.00;103750.78;5022143;28;20029;-72
2022/01/18 08:46:49;;;;;;;51.72;19.45;;;;;;;4.38;100.00;103757.00;5020545;28;20454;-73
2022/01/18 08:49:15;;;;;;;44.97;19.52;;;;;;;4.40;100.00;103760.53;5018193;28;20025;-72
2022/01/18 08:51:40;;;;;;;36.95;18.13;;;;;;;4.42;100.00;103763.19;5018582;28;20462;-72
2022/01/18 08:54:07;;;;;;;44.95;17.55;;;;;;;4.44;100.00;103764.09;5019285;28;20031;-72
2022/01/18 08:56:32;;;;;;;39.63;16.98;;;;;;;4.45;100.00;103758.78;5019487;28;20086;-72
2022/01/18 08:58:57;;;;;;;42.95;16.73;;;;;;;4.46;100.00;103763.19;5017515;28;20504;-72
2022/01/18 09:01:23;;;;;;;46.33;16.90;;;;;;;4.46;100.00;103765.84;5019840;28;20354;-72
2022/01/18 09:03:50;;;;;;;38.45;17.27;;;;;;;4.48;100.00;103764.09;5020035;28;20021;-73
2022/01/18 09:06:16;;;;;;;38.13;18.33;;;;;;;4.51;100.00;103758.75;5019031;28;20029;-73
2022/01/18 09:08:42;;;;;;;35.03;16.08;;;;;;;4.54;100.00;103757.88;5019732;28;20025;-73
2022/01/18 09:11:11;;;;;;;36.92;15.48;;;;;;;4.57;100.00;103762.28;5020469;28;20846;-73
2022/01/18 09:13:37;;;;;;;39.42;15.90;;;;;;;4.60;100.00;103756.97;5019588;28;20731;-73
2022/01/18 09:16:06;;;;;;;44.05;16.73;;;;;;;4.63;100.00;103768.53;5020860;28;20033;-73
2022/01/18 09:18:31;;;;;;;36.45;15.30;;;;;;;4.67;100.00;103774.72;5019296;28;20037;-73
2022/01/18 09:20:56;;;;;;;33.60;15.43;;;;;;;4.70;100.00;103775.63;5019771;28;20033;-72
2022/01/18 09:23:21;;;;;;;33.55;14.18;;;;;;;4.71;100.00;103782.72;5020306;28;20018;-72
2022/01/18 09:25:48;;;;;;;32.03;13.73;;;;;;;4.75;100.00;103775.59;5018382;28;20033;-73
2022/01/18 09:28:13;;;;;;;34.00;15.82;;;;;;;4.76;100.00;103780.06;5017645;28;20037;-72
2022/01/18 09:30:39;;;;;;;38.45;15.82;;;;;;;4.78;100.00;103777.38;5018524;28;20048;-73
2022/01/18 09:33:06;;;;;;;37.35;17.58;;;;;;;4.79;100.00;103782.69;5017560;28;20116;-73
2022/01/18 09:35:37;;;;;;;36.88;16.25;;;;;;;4.83;100.00;103783.56;5023495;28;20521;-73
2022/01/18 09:38:02;;;;;;;34.47;16.45;;;;;;;4.86;100.00;103784.47;5016991;28;20492;-72
2022/01/18 09:40:28;;;;;;;39.08;17.05;;;;;;;4.84;100.00;103786.22;5018455;28;20056;-72
2022/01/18 09:42:57;;;;;;;38.95;17.48;;;;;;;4.89;100.00;103779.13;5019684;28;20021;-73
2022/01/18 09:45:25;;;;;;;43.53;18.88;;;;;;;4.93;100.00;103787.13;5018650;28;20383;-73
2022/01/18 09:47:53;;;;;;;38.80;16.92;;;;;;;4.97;100.00;103791.56;5019731;28;20033;-73
2022/01/18 09:50:21;;;;;;;35.75;16.55;;;;;;;4.99;100.00;103787.09;5019538;28;20598;-73
2022/01/18 09:52:52;;;;;;;41.90;16.85;;;;;;;5.03;100.00;103796.88;5018048;28;20716;-73
2022/01/18 09:55:26;;;;;;;33.10;16.65;;;;;;;5.06;100.00;103789.72;5019470;28;20103;-73
2022/01/18 09:57:52;;;;;;;36.08;15.65;;;;;;;5.12;100.00;103790.63;5019017;28;20067;-73
2022/01/18 10:00:19;;;;;;;39.72;17.27;;;;;;;5.16;100.00;103798.59;5051779;28;20053;-72
2022/01/18 10:02:45;;;;;;;35.03;15.68;;;;;;;5.20;100.00;103792.38;5017585;28;20477;-73
2022/01/18 10:05:21;;;;;;;30.23;14.75;;;;;;;5.27;100.00;103793.25;5017410;28;20045;-73
2022/01/18 10:07:55;;;;;;;32.03;14.90;;;;;;;5.32;100.00;103790.56;5017400;28;20047;-73
2022/01/18 10:10:20;;;;;;;29.23;14.30;;;;;;;5.34;100.00;103786.09;5015946;28;20061;-73
2022/01/18 10:12:55;;;;;;;34.47;15.60;;;;;;;5.35;100.00;103785.22;5018181;28;20041;-73
2022/01/18 10:15:20;;;;;;;30.90;15.25;;;;;;;5.37;100.00;103795.00;5016307;28;20037;-73
2022/01/18 10:17:45;;;;;;;31.10;13.45;;;;;;;5.40;100.00;103792.31;5018715;28;20584;-73
2022/01/18 10:20:16;;;;;;;30.67;15.30;;;;;;;5.40;100.00;103789.63;5018282;28;20056;-73
2022/01/18 10:22:48;;;;;;;33.25;16.15;;;;;;;5.44;100.00;103790.50;5020117;28;20041;-74
2022/01/18 10:25:15;;;;;;;35.05;17.77;;;;;;;5.48;100.00;103791.38;5018700;28;20694;-73
2022/01/18 10:27:40;;;;;;;37.42;17.42;;;;;;;5.50;99.83;103789.59;5019610;28;20041;-73
2022/01/18 10:30:09;;;;;;;31.30;16.67;;;;;;;5.52;99.71;103786.03;5015441;28;20543;-73
2022/01/18 10:32:40;;;;;;;38.80;19.90;;;;;;;5.54;99.55;103783.34;5018111;28;20041;-73
2022/01/18 10:35:08;;;;;;;38.30;19.67;;;;;;;5.55;99.36;103777.09;5017981;28;20354;-73
2022/01/18 10:37:35;;;;;;;42.03;20.85;;;;;;;5.57;99.52;103773.53;5016071;28;20029;-73
2022/01/18 10:40:13;;;;;;;45.20;21.70;;;;;;;5.63;100.00;103777.97;5019010;28;20120;-73
2022/01/18 10:42:46;;;;;;;40.22;21.67;;;;;;;5.65;99.39;103770.84;5019086;28;20029;-74
2022/01/18 10:45:21;;;;;;;38.65;19.50;;;;;;;5.73;99.34;103777.00;5016398;28;20086;-73
2022/01/18 10:48:13;;;;;;;37.70;20.55;;;;;;;5.82;99.69;103767.19;5017543;28;20033;-74
2022/01/18 10:50:41;;;;;;;34.55;17.83;;;;;;;5.87;99.11;103766.25;5016881;28;20030;-74
2022/01/18 10:53:27;;;;;;;40.42;18.17;;;;;;;5.98;99.37;103762.66;5017362;28;20057;-74
2022/01/18 10:56:12;;;;;;;43.55;19.55;;;;;;;6.09;99.36;103766.13;5017818;28;20490;-73
2022/01/18 10:58:52;;;;;;;39.20;18.13;;;;;;;6.14;98.81;103760.78;5016968;28;20041;-73
2022/01/18 11:01:19;;;;;;;41.05;18.05;;;;;;;6.18;98.34;103755.41;5017428;28;20095;-73
2022/01/18 11:04:15;;;;;;;35.38;18.48;;;;;;;6.25;98.65;103761.56;5016882;28;20527;-73
2022/01/18 11:06:43;;;;;;;34.85;18.08;;;;;;;6.24;98.31;103751.78;5016274;28;20094;-73
2022/01/18 11:09:18;;;;;;;37.80;17.20;;;;;;;6.25;96.66;103750.88;5018748;28;20025;-73
2022/01/18 11:11:45;;;;;;;38.90;18.58;;;;;;;6.24;96.46;103741.09;5016931;28;20083;-73
2022/01/18 11:14:13;;;;;;;42.67;19.33;;;;;;;6.22;96.58;103743.78;5016446;28;20069;-73
2022/01/18 11:16:43;;;;;;;36.47;18.92;;;;;;;6.27;97.34;103743.75;5016138;28;20041;-73
2022/01/18 11:19:18;;;;;;;44.72;18.67;;;;;;;6.27;96.74;103749.97;5016889;28;20025;-74
2022/01/18 11:21:45;;;;;;;40.75;19.48;;;;;;;6.31;97.30;103742.81;5017372;28;20861;-72
2022/01/18 11:24:11;;;;;;;39.03;16.88;;;;;;;6.32;95.76;103741.03;5017759;28;20063;-73
2022/01/18 11:26:38;;;;;;;37.28;16.23;;;;;;;6.33;95.35;103745.50;5014953;28;20029;-73
2022/01/18 11:29:05;;;;;;;37.30;15.88;;;;;;;6.35;95.49;103746.34;5016005;28;20040;-73
2022/01/18 11:31:30;;;;;;;36.80;17.00;;;;;;;6.40;95.98;103741.81;5017956;28;20035;-73
2022/01/18 11:34:00;;;;;;;35.70;16.08;;;;;;;6.46;96.15;103736.47;5015024;28;20635;-73
2022/01/18 11:36:32;;;;;;;41.35;17.35;;;;;;;6.50;94.83;103734.63;5015988;28;20051;-73
2022/01/18 11:39:02;;;;;;;37.08;16.33;;;;;;;6.54;94.92;103739.03;5023085;28;20120;-73
2022/01/18 11:41:34;;;;;;;40.58;16.55;;;;;;;6.52;93.29;103733.72;5015056;28;20052;-73
2022/01/18 11:44:13;;;;;;;36.25;15.15;;;;;;;6.52;93.13;103724.81;5017104;28;20044;-73
2022/01/18 11:46:46;;;;;;;33.67;13.43;;;;;;;6.51;92.90;103729.25;5017640;28;20179;-74
2022/01/18 11:49:21;;;;;;;39.50;16.00;;;;;;;6.46;92.03;103723.09;5016906;28;20076;-73
2022/01/18 11:51:54;;;;;;;32.88;13.95;;;;;;;6.42;92.36;103724.91;5017228;28;20041;-74
2022/01/18 11:54:26;;;;;;;33.30;13.93;;;;;;;6.39;92.25;103724.94;5019798;28;20045;-73
2022/01/18 11:56:52;;;;;;;39.40;15.32;;;;;;;6.38;92.47;103724.94;5020282;28;20056;-73
2022/01/18 11:59:19;;;;;;;33.17;14.07;;;;;;;6.37;91.44;103721.41;5020791;28;20025;-72
2022/01/18 12:01:56;;;;;;;31.05;13.45;;;;;;;6.37;92.34;103725.84;5021926;28;20048;-73
2022/01/18 12:07:29;;;;;;;31.98;12.80;;;;;;;6.34;92.54;103724.09;5019985;28;20425;-73
2022/01/18 12:09:55;;;;;;;34.28;15.88;;;;;;;6.35;91.74;103714.28;5019002;28;20056;-74
2022/01/18 12:12:48;;;;;;;31.60;13.65;;;;;;;6.38;92.64;103711.59;5025416;28;20690;-73
2022/01/18 12:15:17;;;;;;;38.38;14.18;;;;;;;6.40;92.06;103708.00;5015385;28;20041;-73
2022/01/18 12:17:47;;;;;;;35.35;14.82;;;;;;;6.43;92.12;103699.97;5021119;28;20032;-74
2022/01/18 12:20:32;;;;;;;33.08;13.02;;;;;;;6.48;92.56;103707.91;5020651;28;20604;-73
2022/01/18 12:23:03;;;;;;;33.70;14.38;;;;;;;6.48;91.23;103707.91;5019859;28;20600;-73
2022/01/18 12:25:31;;;;;;;32.08;11.95;;;;;;;6.48;91.18;103713.25;5017069;28;20501;-73
2022/01/18 12:28:01;;;;;;;28.27;12.80;;;;;;;6.46;92.01;103710.59;5022725;28;20493;-73
2022/01/18 12:30:42;;;;;;;35.40;13.45;;;;;;;6.45;91.71;103702.63;5028732;28;20037;-73
2022/01/18 12:33:17;;;;;;;40.70;13.60;;;;;;;6.45;91.87;103700.81;5020014;28;20034;-74
2022/01/18 12:35:43;;;;;;;28.70;11.70;;;;;;;6.45;90.95;103703.50;5020554;28;20041;-73
2022/01/18 12:38:10;;;;;;;30.38;12.18;;;;;;;6.46;90.94;103704.41;5021355;28;20091;-73
2022/01/18 12:40:42;;;;;;;32.88;11.15;;;;;;;6.48;91.43;103699.91;5024043;28;20021;-73